Pagrindinis puslapis
METAR-TAF:

METAR-TAF

Oro uostai :

Džajapura, Indonezija

platuma: 02-34-37S, ilguma: 140-30-58E, Aukštis: 88 m

Dabartinis oras

Ataskaita buvo paskelbta 17 minutes, ne 01:30 UTC
Vėjas 3 kt iš Rytų/Pietryčių
Temperatūra 29°C
Drėgmė 74%
Slėgis 1007 hPa
Matomumas 10 km arba daugiau
Išsisklaidę debesys ne aukštis 1300 ft

METAR: WAJJ 290130Z 12003KT 9999 SCT013 29/24 Q1007 NOSIG

Laikas: 08:47 (01:47 UTC)


TAF: trūkstamas

Orai ataskaitas ir orų prognozės (METAR, TAF).

turimą stotys yra geltonos ir raudonos taškus žemėlapyje.

Perkelti pele per norėdami pamatyti stoties vardą.

Tada spustelėkite, norėdami matyti oro stebėjimo ir prognozės.

Norėdami pakeisti žemėlapį: spustelėkite ant žalios mygtukų su juodo kryžiaus žemyn,; žalią mygtuką su brūkšneliu, jei norite nutolinti; arba žalių rodyklių gretimoms žemėlapius.


METAR-TAF: